Time;durP1;ratioP1;P1;durP2;ratioP2;P2;SDS_P1;SDS_P2;PMS_P1;PMS_P2;Temp;Humidity;BMP_temperature;BMP_pressure;BME280_temperature;BME280_humidity;BME280_pressure;Samples;Min_cycle;Max_cycle;Signal;HPM_P1;HPM_P2
2023/02/16 00:00:33;;;;;;;23.83;13.45;;;2.90;1.00;;;;;;5017056;28;20403;-90
2023/02/16 00:03:21;;;;;;;27.38;13.60;;;3.00;1.00;;;;;;4992293;28;20387;-91
2023/02/16 00:06:13;;;;;;;20.50;12.60;;;3.00;1.00;;;;;;5028809;28;20113;-88
2023/02/16 00:09:00;;;;;;;20.80;11.80;;;3.10;1.00;;;;;;5026030;28;20101;-92
2023/02/16 00:14:57;;;;;;;24.02;11.98;;;3.10;99.90;;;;;;5035717;28;20029;-87
2023/02/16 00:17:44;;;;;;;20.55;11.30;;;2.90;99.90;;;;;;5005227;28;20101;-90
2023/02/16 00:20:34;;;;;;;21.60;11.60;;;3.00;99.90;;;;;;5012975;28;20109;-91
2023/02/16 00:23:21;;;;;;;21.70;12.32;;;3.20;99.90;;;;;;5017998;28;20045;-89
2023/02/16 00:26:32;;;;;;;25.00;11.38;;;3.00;99.90;;;;;;4994444;28;20090;-91
2023/02/16 00:29:29;;;;;;;23.27;11.50;;;3.00;99.90;;;;;;5002208;28;20038;-91
2023/02/16 00:32:16;;;;;;;20.70;11.43;;;3.10;99.90;;;;;;5008904;28;20061;-91
2023/02/16 00:35:12;;;;;;;26.25;13.43;;;3.20;99.90;;;;;;4998089;28;20053;-89
2023/02/16 00:37:59;;;;;;;24.35;14.00;;;3.10;99.90;;;;;;4996404;28;20064;-91
2023/02/16 00:40:46;;;;;;;25.45;14.43;;;2.80;99.90;;;;;;4992147;28;20129;-91
2023/02/16 00:43:36;;;;;;;26.77;14.05;;;2.60;99.90;;;;;;5001870;28;20057;-89
2023/02/16 00:46:23;;;;;;;27.00;13.32;;;2.40;99.90;;;;;;5002419;28;20057;-90
2023/02/16 00:49:18;;;;;;;25.27;14.02;;;2.20;99.90;;;;;;5009100;28;20042;-88
2023/02/16 00:52:25;;;;;;;25.58;14.45;;;2.20;99.90;;;;;;5012181;28;20049;-92
2023/02/16 00:55:21;;;;;;;25.40;13.25;;;2.10;99.90;;;;;;4997331;28;20182;-91
2023/02/16 00:58:25;;;;;;;25.08;13.93;;;2.00;99.90;;;;;;5012283;28;20053;-92
2023/02/16 01:01:14;;;;;;;20.95;11.52;;;1.80;1.00;;;;;;5001893;28;20049;-91
2023/02/16 01:04:07;;;;;;;20.17;12.48;;;1.70;1.00;;;;;;5000748;28;20038;-91
2023/02/16 01:13:07;;;;;;;24.92;11.68;;;2.00;1.00;;;;;;5012044;28;20066;-91
2023/02/16 01:15:58;;;;;;;22.67;11.45;;;2.30;1.00;;;;;;5011981;28;20129;-91
2023/02/16 01:18:46;;;;;;;19.98;10.63;;;2.40;1.00;;;;;;5000408;28;20056;-91
2023/02/16 01:21:33;;;;;;;23.38;11.18;;;2.50;1.00;;;;;;5011072;28;20042;-91
2023/02/16 01:24:23;;;;;;;19.95;9.77;;;2.50;1.00;;;;;;5017151;28;20497;-90
2023/02/16 01:27:14;;;;;;;18.42;10.50;;;2.40;99.90;;;;;;5003198;28;20047;-90
2023/02/16 01:30:07;;;;;;;19.50;11.60;;;2.40;99.90;;;;;;5004779;28;20050;-91
2023/02/16 01:32:54;;;;;;;18.70;11.20;;;2.30;99.90;;;;;;5001074;28;20049;-90
2023/02/16 01:35:42;;;;;;;20.88;11.55;;;2.10;99.90;;;;;;5013234;28;20065;-90
2023/02/16 01:38:29;;;;;;;21.05;11.10;;;1.90;99.90;;;;;;5023175;28;20049;-90
2023/02/16 01:41:28;;;;;;;19.15;10.98;;;1.90;1.00;;;;;;4986147;28;20065;-89
2023/02/16 01:44:26;;;;;;;17.90;11.02;;;1.80;1.00;;;;;;5024228;28;20042;-88
2023/02/16 01:47:36;;;;;;;17.40;10.45;;;1.70;1.00;;;;;;5021441;28;20042;-88
2023/02/16 01:50:26;;;;;;;20.33;11.18;;;1.70;1.00;;;;;;5009448;28;20050;-88
2023/02/16 01:53:25;;;;;;;19.10;10.55;;;1.70;1.00;;;;;;5030726;28;20042;-90
2023/02/16 01:56:31;;;;;;;23.23;11.05;;;1.60;1.00;;;;;;5014959;28;20137;-92
2023/02/16 01:59:40;;;;;;;18.00;11.30;;;1.60;1.00;;;;;;5022263;28;20057;-86
2023/02/16 02:02:35;;;;;;;18.35;11.18;;;1.40;1.00;;;;;;5017672;28;20126;-90
2023/02/16 02:05:35;;;;;;;20.58;11.10;;;1.40;1.00;;;;;;5008707;28;20037;-91
2023/02/16 02:08:36;;;;;;;23.80;11.73;;;1.40;1.00;;;;;;5031602;28;20033;-89
2023/02/16 02:11:32;;;;;;;17.65;10.80;;;1.30;1.00;;;;;;5001399;28;20482;-90
2023/02/16 02:14:27;;;;;;;23.55;11.90;;;1.20;1.00;;;;;;5012604;28;20116;-90
2023/02/16 02:17:19;;;;;;;18.90;11.48;;;1.30;1.00;;;;;;5023697;28;20148;-90
2023/02/16 02:20:21;;;;;;;17.42;10.98;;;1.30;1.00;;;;;;5007591;28;20064;-90
2023/02/16 02:23:32;;;;;;;18.17;10.35;;;1.40;1.00;;;;;;5003585;28;20076;-89
2023/02/16 02:26:57;;;;;;;19.45;10.73;;;1.30;1.00;;;;;;5014565;28;20041;-89
2023/02/16 02:30:12;;;;;;;28.17;11.07;;;1.40;1.00;;;;;;5003783;28;20042;-91
2023/02/16 02:33:20;;;;;;;18.40;10.77;;;1.50;1.00;;;;;;5017510;28;20050;-89
2023/02/16 02:36:41;;;;;;;18.95;10.95;;;1.60;1.00;;;;;;5000846;28;20065;-91
2023/02/16 02:39:53;;;;;;;20.90;10.85;;;1.60;1.00;;;;;;5013727;28;20114;-89
2023/02/16 02:43:02;;;;;;;19.10;11.50;;;1.60;1.00;;;;;;5000881;28;20456;-92
2023/02/16 02:45:56;;;;;;;17.45;10.52;;;1.50;1.00;;;;;;5005770;28;20046;-88
2023/02/16 02:48:43;;;;;;;19.23;11.32;;;1.30;1.00;;;;;;5015290;28;20038;-90
2023/02/16 02:51:32;;;;;;;23.45;12.38;;;1.20;1.00;;;;;;4997874;28;20048;-90
2023/02/16 03:00:59;;;;;;;20.20;10.80;;;1.60;25.00;;;;;;5018898;28;20422;-89
2023/02/16 03:03:53;;;;;;;18.92;11.30;;;1.70;15.20;;;;;;4986790;28;20045;-89
2023/02/16 03:07:02;;;;;;;;;;;1.80;1.00;;;;;;5011779;28;20042;-89
2023/02/16 03:12:43;;;;;;;19.70;10.57;;;1.70;1.00;;;;;;5002766;28;19975;-90
2023/02/16 03:13:01;;;;;;;21.75;11.10;;;1.70;1.00;;;;;;5018725;28;20049;-89
2023/02/16 03:15:54;;;;;;;21.92;10.90;;;1.90;1.00;;;;;;4994571;28;20152;-90
2023/02/16 03:31:23;;;;;;;18.25;10.63;;;2.90;1.00;;;;;;5035848;28;20034;-83
2023/02/16 03:34:11;;;;;;;21.23;10.85;;;3.10;1.00;;;;;;5041193;28;20050;-85
2023/02/16 03:36:59;;;;;;;20.05;10.30;;;3.30;1.00;;;;;;5022627;28;20053;-87
2023/02/16 03:43:01;;;;;;;22.40;10.85;;;3.20;1.00;;;;;;5023874;28;20117;-87
2023/02/16 03:45:48;;;;;;;17.90;10.30;;;3.20;99.90;;;;;;5024323;28;20073;-89
2023/02/16 03:48:36;;;;;;;18.50;10.30;;;3.00;99.90;;;;;;5006289;28;20372;-88
2023/02/16 03:51:28;;;;;;;22.02;11.38;;;2.90;99.90;;;;;;4996289;28;20049;-87
2023/02/16 03:54:17;;;;;;;19.15;11.13;;;2.70;99.90;;;;;;5015861;28;20073;-87
2023/02/16 03:57:04;;;;;;;19.63;10.70;;;2.70;99.90;;;;;;4999805;28;20049;-89
2023/02/16 03:59:54;;;;;;;17.67;11.25;;;2.90;99.90;;;;;;5006845;28;20073;-90
2023/02/16 04:02:44;;;;;;;22.38;10.85;;;3.00;99.90;;;;;;5000899;28;20043;-90
2023/02/16 04:05:32;;;;;;;19.20;10.45;;;3.00;99.90;;;;;;5000689;28;20127;-91
2023/02/16 04:08:19;;;;;;;20.80;11.43;;;3.10;99.90;;;;;;5007901;28;20038;-90
2023/02/16 04:14:15;;;;;;;17.73;10.40;;;3.20;99.90;;;;;;5025147;28;20046;-89
2023/02/16 04:17:04;;;;;;;22.77;11.77;;;3.10;99.90;;;;;;5006598;28;20483;-89
2023/02/16 04:19:51;;;;;;;22.13;12.32;;;3.10;99.90;;;;;;5021102;28;20054;-89
2023/02/16 04:22:40;;;;;;;23.38;12.18;;;3.10;99.90;;;;;;4995977;28;20091;-91
2023/02/16 04:25:28;;;;;;;24.80;11.13;;;3.10;99.90;;;;;;5001653;28;20061;-89
2023/02/16 04:28:15;;;;;;;22.52;11.95;;;3.00;99.90;;;;;;5015269;28;20125;-89
2023/02/16 04:31:02;;;;;;;18.63;10.75;;;3.00;99.90;;;;;;5012802;28;20463;-90
2023/02/16 04:33:50;;;;;;;20.00;11.27;;;3.00;99.90;;;;;;5013052;28;20539;-90
2023/02/16 04:36:39;;;;;;;20.95;10.55;;;3.00;99.90;;;;;;4998597;28;20365;-90
2023/02/16 04:39:27;;;;;;;18.52;11.02;;;2.80;99.90;;;;;;5009160;28;20181;-91
2023/02/16 04:42:14;;;;;;;23.58;12.57;;;2.60;99.90;;;;;;4999105;28;20479;-91
2023/02/16 04:45:01;;;;;;;22.65;12.77;;;2.70;99.90;;;;;;5012109;28;20372;-89
2023/02/16 04:47:49;;;;;;;21.38;11.45;;;2.80;1.00;;;;;;4998141;28;20061;-91
2023/02/16 04:50:36;;;;;;;22.45;11.88;;;2.90;99.90;;;;;;5014401;28;20169;-90
2023/02/16 04:53:26;;;;;;;19.58;11.20;;;2.80;99.90;;;;;;5008055;28;20104;-89
2023/02/16 04:56:15;;;;;;;23.75;11.82;;;2.80;99.90;;;;;;5014917;28;20467;-90
2023/02/16 04:59:02;;;;;;;23.77;11.75;;;2.80;99.90;;;;;;5014716;28;20104;-90
2023/02/16 05:02:00;;;;;;;23.42;13.13;;;2.80;1.00;;;;;;5016886;28;20046;-89
2023/02/16 05:04:48;;;;;;;23.45;12.43;;;2.70;1.00;;;;;;5011317;28;20050;-90
2023/02/16 05:07:36;;;;;;;29.13;11.95;;;2.50;1.00;;;;;;5003958;28;20122;-91
2023/02/16 05:10:24;;;;;;;21.60;12.23;;;2.60;1.00;;;;;;5021975;28;20049;-89
2023/02/16 05:16:20;;;;;;;25.80;11.80;;;3.20;1.00;;;;;;5010035;28;20058;-89
2023/02/16 05:19:09;;;;;;;21.52;11.77;;;3.40;1.00;;;;;;5002372;28;20042;-86
2023/02/16 05:21:58;;;;;;;23.58;12.07;;;3.50;1.00;;;;;;5007739;28;20554;-86
2023/02/16 05:24:45;;;;;;;23.70;12.07;;;3.40;99.90;;;;;;5022724;28;20042;-88
2023/02/16 05:27:33;;;;;;;26.00;13.05;;;3.50;99.90;;;;;;5016928;28;20041;-89
2023/02/16 05:30:20;;;;;;;24.83;12.45;;;3.40;99.90;;;;;;5006812;28;20048;-89
2023/02/16 05:33:07;;;;;;;23.45;12.45;;;3.30;99.90;;;;;;4999204;28;20047;-88
2023/02/16 05:35:55;;;;;;;23.95;12.93;;;3.30;99.90;;;;;;5007761;28;20116;-87
2023/02/16 05:38:42;;;;;;;27.90;11.57;;;3.20;99.90;;;;;;5007650;28;20475;-86
2023/02/16 05:41:29;;;;;;;24.45;12.95;;;3.10;99.90;;;;;;5010500;28;20382;-87
2023/02/16 05:44:17;;;;;;;23.95;13.18;;;3.10;99.90;;;;;;5016957;28;20060;-87
2023/02/16 05:47:04;;;;;;;25.58;12.85;;;3.20;99.90;;;;;;4997834;28;20411;-88
2023/02/16 05:49:52;;;;;;;25.95;13.30;;;3.30;99.90;;;;;;5007040;28;20077;-88
2023/02/16 05:52:39;;;;;;;24.10;12.63;;;3.40;99.90;;;;;;5004319;28;20049;-90
2023/02/16 05:55:27;;;;;;;24.65;13.30;;;3.50;99.90;;;;;;5003865;28;20058;-90
2023/02/16 05:58:14;;;;;;;26.80;13.20;;;3.60;99.90;;;;;;5016673;28;20046;-91
2023/02/16 06:01:02;;;;;;;28.45;13.20;;;3.70;99.90;;;;;;5029183;28;20103;-92
2023/02/16 06:03:50;;;;;;;21.67;13.02;;;3.80;99.90;;;;;;5023102;28;20042;-88
2023/02/16 06:06:41;;;;;;;26.05;13.38;;;3.70;99.90;;;;;;5026703;28;20518;-94
2023/02/16 06:09:30;;;;;;;25.52;13.60;;;3.60;99.90;;;;;;5026459;28;20046;-93
2023/02/16 06:12:19;;;;;;;27.38;13.73;;;3.50;99.90;;;;;;5010454;28;20051;-93
2023/02/16 06:15:07;;;;;;;27.77;14.02;;;3.30;99.90;;;;;;5019203;28;20042;-91
2023/02/16 06:17:54;;;;;;;26.40;14.27;;;3.20;99.90;;;;;;5004957;28;20053;-92
2023/02/16 06:20:41;;;;;;;27.02;14.00;;;3.10;99.90;;;;;;5019426;28;20096;-92
2023/02/16 06:23:29;;;;;;;25.60;13.82;;;3.10;99.90;;;;;;5025263;28;20105;-90
2023/02/16 06:26:17;;;;;;;28.10;13.25;;;3.10;99.90;;;;;;5015568;28;20058;-91
2023/02/16 06:29:05;;;;;;;29.90;14.23;;;3.20;99.90;;;;;;5016643;28;20034;-90
2023/02/16 06:31:52;;;;;;;26.48;14.38;;;3.10;99.90;;;;;;5002031;28;20050;-90
2023/02/16 06:34:39;;;;;;;29.25;14.15;;;3.00;99.90;;;;;;5006115;28;20371;-86
2023/02/16 06:37:27;;;;;;;25.95;13.82;;;2.90;99.90;;;;;;5008760;28;20085;-88
2023/02/16 06:40:16;;;;;;;24.98;14.68;;;3.00;99.90;;;;;;5003889;28;20042;-89
2023/02/16 06:43:04;;;;;;;28.38;14.20;;;3.10;99.90;;;;;;4998583;28;20052;-90
2023/02/16 06:45:52;;;;;;;29.33;13.98;;;3.10;99.90;;;;;;5007243;28;20046;-89
2023/02/16 06:48:41;;;;;;;31.77;15.23;;;3.10;99.90;;;;;;4996104;28;20064;-88
2023/02/16 06:51:29;;;;;;;26.75;13.70;;;3.10;99.90;;;;;;5007567;28;20397;-85
2023/02/16 06:54:16;;;;;;;27.40;14.90;;;3.10;99.90;;;;;;5001668;28;21732;-88
2023/02/16 06:57:03;;;;;;;28.20;14.52;;;3.10;99.90;;;;;;5001975;28;20124;-92
2023/02/16 06:59:51;;;;;;;29.02;14.63;;;3.20;99.90;;;;;;5018756;28;20061;-93
2023/02/16 07:02:38;;;;;;;31.27;15.93;;;3.10;99.90;;;;;;5003392;28;20112;-91
2023/02/16 07:05:27;;;;;;;27.83;15.77;;;3.00;99.90;;;;;;5006204;28;20038;-90
2023/02/16 07:08:15;;;;;;;29.23;16.48;;;2.90;99.90;;;;;;5005166;28;20112;-90
2023/02/16 07:11:02;;;;;;;29.33;15.85;;;2.80;99.90;;;;;;5024760;28;20347;-90
2023/02/16 07:13:50;;;;;;;25.80;13.80;;;2.80;99.90;;;;;;5018065;28;20062;-91
2023/02/16 07:16:37;;;;;;;24.60;14.43;;;2.90;99.90;;;;;;5009687;28;20057;-91
2023/02/16 07:19:25;;;;;;;31.27;15.07;;;3.00;1.00;;;;;;5028240;28;20387;-89
2023/02/16 07:22:12;;;;;;;27.45;15.07;;;3.20;1.00;;;;;;5018479;28;20046;-89
2023/02/16 07:24:59;;;;;;;30.00;15.25;;;3.30;99.90;;;;;;5003982;28;20049;-87
2023/02/16 07:27:47;;;;;;;27.20;14.57;;;3.40;99.90;;;;;;4994663;28;20038;-88
2023/02/16 07:30:35;;;;;;;25.50;14.20;;;3.50;99.90;;;;;;5028848;28;20057;-89
2023/02/16 07:33:23;;;;;;;28.38;15.27;;;3.80;99.90;;;;;;4998525;28;20049;-87
2023/02/16 07:36:18;;;;;;;24.80;13.73;;;4.10;99.90;;;;;;5000213;28;20050;-89
2023/02/16 07:39:06;;;;;;;25.13;14.48;;;4.40;99.90;;;;;;5002359;28;20041;-90
2023/02/16 07:41:53;;;;;;;38.13;13.70;;;4.60;99.90;;;;;;5021569;28;20069;-90
2023/02/16 07:44:43;;;;;;;27.95;14.10;;;4.80;99.90;;;;;;5018721;28;20387;-92
2023/02/16 07:47:30;;;;;;;27.20;14.25;;;4.70;99.90;;;;;;5017081;28;20470;-89
2023/02/16 07:50:18;;;;;;;25.25;15.82;;;4.70;99.90;;;;;;5010861;28;20192;-88
2023/02/16 07:53:08;;;;;;;24.95;14.43;;;4.80;99.90;;;;;;5014544;28;20065;-86
2023/02/16 07:55:58;;;;;;;31.08;14.38;;;5.00;99.90;;;;;;4993749;28;20088;-89
2023/02/16 07:58:48;;;;;;;24.05;14.35;;;5.20;99.90;;;;;;5013891;28;20049;-92
2023/02/16 08:01:36;;;;;;;25.02;13.75;;;5.40;99.90;;;;;;5009334;28;20076;-90
2023/02/16 08:04:26;;;;;;;26.63;14.85;;;5.40;99.90;;;;;;5016081;28;20042;-89
2023/02/16 08:07:16;;;;;;;27.40;14.13;;;5.30;99.90;;;;;;5026635;28;20046;-90
2023/02/16 08:10:06;;;;;;;32.13;13.63;;;5.50;99.90;;;;;;5028968;28;20077;-87
2023/02/16 08:12:54;;;;;;;22.73;13.25;;;5.80;99.90;;;;;;5032492;28;20041;-86
2023/02/16 08:15:47;;;;;;;23.17;12.88;;;5.90;99.90;;;;;;5037537;28;20076;-85
2023/02/16 08:18:35;;;;;;;24.38;13.27;;;6.00;99.90;;;;;;5017066;28;20387;-87
2023/02/16 08:21:27;;;;;;;18.80;12.05;;;6.00;99.90;;;;;;5015657;28;20053;-86
2023/02/16 08:24:15;;;;;;;21.45;12.88;;;6.10;99.90;;;;;;5007961;28;20034;-88
2023/02/16 08:27:06;;;;;;;23.70;13.02;;;6.30;99.90;;;;;;4999968;28;20109;-86
2023/02/16 08:29:53;;;;;;;23.27;12.68;;;6.40;99.90;;;;;;5027382;28;20050;-87
2023/02/16 08:32:41;;;;;;;20.30;12.05;;;6.70;99.90;;;;;;5014977;28;20129;-87
2023/02/16 08:35:33;;;;;;;21.30;12.55;;;6.90;99.90;;;;;;5021365;28;20076;-83
2023/02/16 08:38:20;;;;;;;21.33;11.93;;;7.20;99.90;;;;;;5024074;28;20426;-88
2023/02/16 08:41:10;;;;;;;22.40;12.48;;;7.30;99.90;;;;;;5007864;28;20046;-90
2023/02/16 08:43:59;;;;;;;22.70;11.50;;;7.40;99.90;;;;;;5025595;28;20104;-88
2023/02/16 08:46:48;;;;;;;19.85;11.23;;;7.80;99.90;;;;;;5005614;28;20102;-88
2023/02/16 08:49:35;;;;;;;22.10;11.25;;;8.20;99.90;;;;;;5005237;28;20459;-86
2023/02/16 08:52:23;;;;;;;18.05;10.55;;;8.40;99.90;;;;;;5007256;28;20034;-86
2023/02/16 08:55:10;;;;;;;19.98;12.30;;;8.60;99.90;;;;;;5010467;28;20057;-88
2023/02/16 08:57:59;;;;;;;21.55;11.75;;;8.90;99.90;;;;;;5021040;28;20056;-89
2023/02/16 09:00:49;;;;;;;20.13;11.60;;;8.90;99.90;;;;;;5021415;28;20042;-86
2023/02/16 09:03:41;;;;;;;19.30;11.00;;;8.50;99.90;;;;;;4995574;28;20041;-89
2023/02/16 09:06:31;;;;;;;19.73;10.93;;;8.60;99.90;;;;;;5002406;28;20459;-89
2023/02/16 09:09:19;;;;;;;16.25;10.10;;;8.90;98.10;;;;;;4999163;28;20057;-85
2023/02/16 09:12:06;;;;;;;17.27;10.00;;;8.80;92.80;;;;;;5001048;28;20046;-84
2023/02/16 09:14:54;;;;;;;19.67;10.05;;;8.90;90.90;;;;;;5006497;28;20050;-86
2023/02/16 09:17:45;;;;;;;18.13;10.10;;;8.90;79.60;;;;;;5011400;28;20041;-86
2023/02/16 09:20:32;;;;;;;16.35;9.00;;;9.10;77.80;;;;;;5002719;28;20049;-85
2023/02/16 09:23:20;;;;;;;17.73;8.93;;;9.40;69.40;;;;;;5015839;28;20053;-86
2023/02/16 09:26:08;;;;;;;17.70;8.48;;;9.90;58.60;;;;;;5013722;28;20041;-87
2023/02/16 09:28:58;;;;;;;13.40;8.60;;;10.00;48.40;;;;;;5019057;28;20054;-88
2023/02/16 09:31:48;;;;;;;14.98;8.15;;;10.00;42.80;;;;;;5000575;28;20057;-87
2023/02/16 09:34:36;;;;;;;12.70;7.97;;;10.30;40.20;;;;;;4995721;28;20042;-87
2023/02/16 09:37:23;;;;;;;15.18;8.25;;;9.90;34.40;;;;;;5001607;28;20060;-87
2023/02/16 09:40:13;;;;;;;15.10;8.07;;;9.90;32.20;;;;;;5025866;28;20049;-88
2023/02/16 09:43:10;;;;;;;15.13;8.55;;;10.30;32.00;;;;;;5015883;28;20042;-88
2023/02/16 09:46:03;;;;;;;14.57;8.68;;;10.30;28.10;;;;;;5011814;28;20050;-86
2023/02/16 09:48:52;;;;;;;18.55;8.75;;;10.60;27.90;;;;;;5009556;28;20050;-87
2023/02/16 09:51:40;;;;;;;14.05;8.57;;;10.90;25.70;;;;;;5014931;28;20053;-86
2023/02/16 09:54:48;;;;;;;17.70;9.45;;;11.00;22.30;;;;;;5014650;28;20050;-89
2023/02/16 09:58:16;;;;;;;15.85;8.55;;;11.20;21.60;;;;;;5003298;28;20046;-85
2023/02/16 10:01:30;;;;;;;15.07;8.52;;;11.80;19.80;;;;;;5013679;28;20053;-87
2023/02/16 10:04:34;;;;;;;14.98;8.73;;;12.70;19.50;;;;;;5012046;28;20441;-89
2023/02/16 10:07:50;;;;;;;18.73;8.50;;;13.00;13.20;;;;;;5018553;28;20049;-90
2023/02/16 10:11:02;;;;;;;16.27;7.88;;;12.40;8.80;;;;;;5012900;28;20053;-93
2023/02/16 10:13:56;;;;;;;20.92;8.75;;;12.60;8.70;;;;;;4997994;28;20371;-87
2023/02/16 10:16:49;;;;;;;;;;;13.20;7.30;;;;;;5015397;28;20057;-89
2023/02/16 10:20:12;;;;;;;13.85;8.65;;;13.50;3.80;;;;;;5003290;28;20274;-90
2023/02/16 10:23:08;;;;;;;17.17;8.68;;;13.60;1.00;;;;;;5012243;28;20046;-90
2023/02/16 10:26:11;;;;;;;15.00;8.15;;;13.70;1.00;;;;;;5014214;28;20038;-93
2023/02/16 10:29:06;;;;;;;12.60;7.15;;;13.90;1.00;;;;;;5003676;28;20041;-89
2023/02/16 10:32:33;;;;;;;16.20;7.93;;;13.80;1.00;;;;;;5007575;28;20459;-92
2023/02/16 10:35:42;;;;;;;16.02;7.68;;;14.10;1.00;;;;;;5005533;28;20068;-89
2023/02/16 10:38:53;;;;;;;15.35;8.13;;;14.40;1.00;;;;;;4998679;28;20066;-89
2023/02/16 10:41:45;;;;;;;13.63;7.78;;;14.40;1.00;;;;;;5013669;28;20077;-88
2023/02/16 10:44:39;;;;;;;14.32;7.95;;;14.70;1.00;;;;;;5007874;28;20048;-91
2023/02/16 10:47:31;;;;;;;12.23;7.40;;;15.30;1.00;;;;;;5013473;28;20054;-89
2023/02/16 10:50:41;;;;;;;12.40;7.43;;;15.80;1.00;;;;;;5002584;28;20179;-89
2023/02/16 10:53:49;;;;;;;12.57;6.85;;;15.60;1.00;;;;;;5025408;28;20042;-89
2023/02/16 10:56:49;;;;;;;9.95;6.68;;;16.10;1.00;;;;;;5022113;28;20475;-90
2023/02/16 10:59:38;;;;;;;13.00;7.88;;;16.20;1.00;;;;;;5011380;28;20164;-90
2023/02/16 11:02:29;;;;;;;9.27;6.28;;;16.40;1.00;;;;;;5011412;28;20050;-87
2023/02/16 11:05:37;;;;;;;9.55;6.20;;;17.20;1.00;;;;;;5017992;28;20149;-88
2023/02/16 11:08:45;;;;;;;14.02;6.50;;;18.10;1.00;;;;;;5008782;28;20046;-87
2023/02/16 11:11:39;;;;;;;10.38;6.90;;;17.40;1.00;;;;;;4997153;28;20057;-90
2023/02/16 11:14:29;;;;;;;11.23;6.22;;;16.50;1.00;;;;;;5018962;28;20046;-85
2023/02/16 11:17:19;;;;;;;11.23;6.72;;;16.00;1.00;;;;;;5008072;28;20445;-90
2023/02/16 11:20:23;;;;;;;11.32;6.88;;;15.90;1.00;;;;;;5009114;28;20124;-86
2023/02/16 11:23:35;;;;;;;10.70;6.47;;;15.70;1.00;;;;;;5008173;28;20494;-85
2023/02/16 11:26:27;;;;;;;13.90;6.95;;;15.20;1.00;;;;;;5007109;28;20038;-87
2023/02/16 11:29:19;;;;;;;10.10;6.53;;;14.80;1.00;;;;;;5016082;28;20352;-87
2023/02/16 11:32:12;;;;;;;7.43;5.43;;;15.10;1.00;;;;;;4996150;28;20132;-86
2023/02/16 11:35:08;;;;;;;;;;;15.90;1.00;;;;;;5013295;28;20332;-88
2023/02/16 11:37:58;;;;;;;12.35;5.97;;;16.80;1.00;;;;;;5015535;28;19936;-86
2023/02/16 11:40:51;;;;;;;9.48;5.85;;;17.40;1.00;;;;;;5002508;28;20121;-86
2023/02/16 11:43:41;;;;;;;10.65;5.65;;;17.50;1.00;;;;;;5008522;28;20105;-87
2023/02/16 11:46:38;;;;;;;10.10;5.50;;;17.00;1.00;;;;;;5012168;28;20424;-88
2023/02/16 11:49:33;;;;;;;9.20;5.47;;;17.30;1.00;;;;;;4997771;28;20042;-86
2023/02/16 11:52:26;;;;;;;10.35;5.95;;;17.20;1.00;;;;;;5001429;28;20042;-87
2023/02/16 11:55:25;;;;;;;10.43;5.93;;;17.00;1.00;;;;;;5018815;28;20049;-86
2023/02/16 11:58:18;;;;;;;8.65;5.30;;;16.70;1.00;;;;;;5012836;28;20093;-87
2023/02/16 12:01:27;;;;;;;10.98;5.40;;;16.90;1.00;;;;;;5000375;28;20506;-89
2023/02/16 12:05:03;;;;;;;10.10;5.55;;;16.90;1.00;;;;;;5001448;28;20471;-90
2023/02/16 12:07:54;;;;;;;11.35;5.28;;;17.50;1.00;;;;;;4989935;28;20061;-89
2023/02/16 12:11:17;;;;;;;9.67;5.07;;;17.90;1.00;;;;;;5010803;28;20046;-89
2023/02/16 12:14:19;;;;;;;8.25;4.72;;;17.10;1.00;;;;;;4998063;28;20057;-90
2023/02/16 12:17:29;;;;;;;8.40;5.00;;;17.10;1.00;;;;;;5011832;28;20153;-90
2023/02/16 12:20:41;;;;;;;11.23;4.80;;;17.40;1.00;;;;;;5003177;28;20049;-89
2023/02/16 12:23:47;;;;;;;7.95;4.90;;;17.90;1.00;;;;;;5003919;28;20136;-94
2023/02/16 12:26:55;;;;;;;10.23;4.70;;;17.70;1.00;;;;;;5012707;28;20060;-87
2023/02/16 12:30:12;;;;;;;10.52;5.15;;;16.70;1.00;;;;;;5006661;28;20030;-88
2023/02/16 12:33:06;;;;;;;11.68;4.60;;;16.60;1.00;;;;;;5019154;28;20037;-88
2023/02/16 12:36:19;;;;;;;8.77;4.60;;;17.00;1.00;;;;;;4991488;28;20050;-90
2023/02/16 12:39:27;;;;;;;11.27;5.43;;;17.70;1.00;;;;;;5010097;28;20099;-89
2023/02/16 12:42:47;;;;;;;6.25;4.40;;;19.00;1.00;;;;;;5009966;28;20727;-90
2023/02/16 12:45:39;;;;;;;7.65;4.18;;;19.50;1.00;;;;;;5000111;28;20108;-90
2023/02/16 12:48:32;;;;;;;7.97;4.95;;;17.80;1.00;;;;;;5018146;28;20122;-89
2023/02/16 12:51:37;;;;;;;7.35;4.13;;;16.70;1.00;;;;;;5018895;28;20065;-89
2023/02/16 12:54:49;;;;;;;10.18;4.82;;;16.70;1.00;;;;;;5002979;28;20465;-87
2023/02/16 12:57:45;;;;;;;11.90;6.30;;;16.90;1.00;;;;;;5010184;28;20049;-89
2023/02/16 13:00:46;;;;;;;10.43;4.60;;;17.20;1.00;;;;;;5008996;28;20045;-89
2023/02/16 13:03:43;;;;;;;11.50;4.13;;;17.50;1.00;;;;;;5015680;28;20081;-91
2023/02/16 13:06:49;;;;;;;6.82;3.85;;;17.50;1.00;;;;;;5007786;28;20077;-92
2023/02/16 13:09:42;;;;;;;7.25;3.85;;;17.80;1.00;;;;;;5014989;28;20061;-90
2023/02/16 13:12:36;;;;;;;9.73;4.88;;;17.50;1.00;;;;;;5028805;28;20040;-94
2023/02/16 13:15:38;;;;;;;6.20;4.13;;;17.60;1.00;;;;;;5019159;28;20042;-91
2023/02/16 13:18:37;;;;;;;7.57;3.60;;;18.40;1.00;;;;;;5008867;28;20054;-89
2023/02/16 13:21:52;;;;;;;8.00;3.22;;;19.70;1.00;;;;;;5018092;28;20095;-91
2023/02/16 13:25:22;;;;;;;4.20;2.80;;;18.20;1.00;;;;;;5007609;28;20049;-88
2023/02/16 13:28:41;;;;;;;5.50;2.72;;;18.80;1.00;;;;;;5003977;28;20112;-91
2023/02/16 13:31:47;;;;;;;6.18;2.60;;;19.10;1.00;;;;;;5019696;28;20049;-91
2023/02/16 13:34:41;;;;;;;5.38;2.58;;;19.00;1.00;;;;;;5017890;28;20042;-88
2023/02/16 13:38:02;;;;;;;5.15;2.53;;;20.20;1.00;;;;;;5024068;28;20490;-87
2023/02/16 13:41:14;;;;;;;3.42;2.50;;;20.20;1.00;;;;;;5022349;28;20474;-88
2023/02/16 13:44:18;;;;;;;2.78;2.28;;;20.20;1.00;;;;;;5006982;28;20054;-89
2023/02/16 13:47:11;;;;;;;5.95;2.85;;;19.40;1.00;;;;;;5020972;28;20038;-90
2023/02/16 13:50:01;;;;;;;4.55;2.00;;;19.10;1.00;;;;;;5015927;28;20046;-90
2023/02/16 13:52:51;;;;;;;7.70;2.80;;;20.00;1.00;;;;;;5015210;28;20073;-89
2023/02/16 13:55:39;;;;;;;5.07;2.80;;;20.00;1.00;;;;;;4998884;28;20049;-90
2023/02/16 13:58:32;;;;;;;4.97;2.60;;;19.10;1.00;;;;;;5016039;28;20050;-90
2023/02/16 14:01:37;;;;;;;6.15;3.10;;;18.20;1.00;;;;;;5012833;28;20069;-89
2023/02/16 14:04:25;;;;;;;6.97;2.95;;;17.80;1.00;;;;;;5026017;28;20052;-90
2023/02/16 14:07:34;;;;;;;8.55;2.67;;;18.00;1.00;;;;;;5012463;28;20054;-83
2023/02/16 14:10:54;;;;;;;5.63;2.80;;;17.10;1.00;;;;;;5016946;28;20054;-92
2023/02/16 14:13:41;;;;;;;5.93;3.17;;;16.40;1.00;;;;;;5019634;28;20264;-92
2023/02/16 14:16:32;;;;;;;8.00;3.70;;;15.90;1.00;;;;;;5018027;28;20056;-90
2023/02/16 14:19:25;;;;;;;6.55;2.83;;;15.40;1.00;;;;;;5024741;28;20077;-92
2023/02/16 14:22:19;;;;;;;9.50;3.42;;;15.20;1.00;;;;;;5024921;28;20423;-90
2023/02/16 14:25:22;;;;;;;5.20;2.88;;;15.70;1.00;;;;;;5029945;28;20054;-88
2023/02/16 14:28:18;;;;;;;4.35;3.13;;;15.70;1.00;;;;;;5028686;28;20106;-91
2023/02/16 14:31:15;;;;;;;3.67;2.83;;;15.20;1.00;;;;;;5019590;28;20034;-92
2023/02/16 14:34:42;;;;;;;6.95;2.97;;;14.70;1.00;;;;;;5034914;28;20052;-86
2023/02/16 14:37:51;;;;;;;8.70;3.10;;;14.50;1.00;;;;;;4962493;28;20038;-86
2023/02/16 14:40:54;;;;;;;7.07;3.08;;;14.10;1.00;;;;;;5029492;28;20044;-89
2023/02/16 14:43:58;;;;;;;8.60;4.25;;;13.80;1.00;;;;;;5013939;28;20042;-90
2023/02/16 14:46:59;;;;;;;8.10;3.50;;;13.50;1.00;;;;;;5020845;28;20042;-92
2023/02/16 14:59:58;;;;;;;6.70;3.55;;;13.20;1.00;;;;;;5460031;22;20042;-85
2023/02/16 15:27:50;;;;;;;6.75;3.58;;;12.20;1.00;;;;;;5629221;23;20065;-84
2023/02/16 15:35:01;;;;;;;;;;;;;;;;;;;;;
2023/02/16 15:38:12;;;;;;;8.73;4.28;;;12.10;1.00;;;;;;5027126;28;20050;-85
2023/02/16 15:41:22;;;;;;;8.60;4.00;;;12.00;1.00;;;;;;5018563;28;20037;-85
2023/02/16 15:44:43;;;;;;;;;;;;;;;;;;;;;
2023/02/16 15:48:37;;;;;;;11.65;4.18;;;11.90;1.00;;;;;;5028779;28;20033;-88
2023/02/16 15:52:21;;;;;;;6.35;3.53;;;11.80;1.00;;;;;;4940965;29;20115;-85
2023/02/16 15:55:23;;;;;;;;;;;;;;;;;;;;;
2023/02/16 16:02:43;;;;;;;7.88;3.83;;;11.60;1.00;;;;;;4913836;28;20122;-87
2023/02/16 16:05:50;;;;;;;9.13;3.92;;;11.60;1.00;;;;;;4921886;29;20071;-85
2023/02/16 16:08:48;;;;;;;6.38;3.88;;;11.50;1.00;;;;;;4948859;28;20109;-86
2023/02/16 16:11:51;;;;;;;9.30;3.85;;;11.40;1.00;;;;;;5021471;28;20041;-88
2023/02/16 16:15:09;;;;;;;;;;;;;;;;;;;;;
2023/02/16 16:31:38;;;;;;;16.90;4.80;;;11.00;1.00;;;;;;4840061;29;20050;-87
2023/02/16 16:34:40;;;;;;;12.00;5.35;;;10.90;1.00;;;;;;4828195;29;20163;-88
2023/02/16 16:37:31;;;;;;;6.53;4.30;;;10.80;1.00;;;;;;4858787;29;20057;-86
2023/02/16 16:40:24;;;;;;;6.35;3.97;;;10.80;1.00;;;;;;4950077;29;20062;-88
2023/02/16 16:43:14;;;;;;;;;;;10.80;1.00;;;;;;4996909;28;20049;-88
2023/02/16 16:46:31;;;;;;;10.75;4.13;;;10.80;1.00;;;;;;5001649;28;19928;-88
2023/02/16 16:49:21;;;;;;;10.50;4.50;;;10.80;1.00;;;;;;5000787;28;20054;-88
2023/02/16 16:52:10;;;;;;;9.95;4.30;;;10.70;1.00;;;;;;5013145;28;20507;-86